Terminal Aerodrome Forecast
Issued by NWS

Home | Current Version | Previous Version | Text Only | Print | Product List | Glossary Off
Versions: 1 2 3 4 5 6 7 8 9 10 11 12 13 14 15 16

000
FTUS43 KGRB 011314 AAA
TAFATW
TAF AMD
KATW 011314Z 0113/0212 21006KT 2SM BR BKN040
      TEMPO 0114/0116 5SM BR SCT040
     FM011600 21007KT P6SM SCT040 SCT200
     FM011800 21008KT P6SM FEW020 SCT200
     FM020400 21004KT 3SM BR SCT200
      TEMPO 0208/0212 1SM BR BKN005=

USA.gov is the U.S. government's official web portal to all federal, state and local government web resources and services.